Time;durP1;ratioP1;P1;durP2;ratioP2;P2;SDS_P1;SDS_P2;PMS_P1;PMS_P2;Temp;Humidity;BMP_temperature;BMP_pressure;BME280_temperature;BME280_humidity;BME280_pressure;Samples;Min_cycle;Max_cycle;Signal;HPM_P1;HPM_P2
2020/12/10 07:28:33;;;;;;;23.40;11.95;;;;;;;0.52;78.53;97960.91;5159181;27;20139;-71
2020/12/10 07:31:14;;;;;;;23.20;12.57;;;;;;;0.71;79.19;97963.34;5117280;27;20372;-72
2020/12/10 07:33:40;;;;;;;20.05;12.20;;;;;;;0.92;79.21;97963.00;5112379;28;20405;-72
2020/12/10 07:36:08;;;;;;;19.42;12.45;;;;;;;1.13;79.03;97964.44;5109637;28;20055;-72
2020/12/10 07:38:35;;;;;;;20.92;11.82;;;;;;;1.26;78.44;97970.06;5108348;28;20040;-72
2020/12/10 07:41:01;;;;;;;18.98;11.75;;;;;;;1.37;78.45;97971.59;5109593;28;20036;-72
2020/12/10 07:43:28;;;;;;;18.95;11.20;;;;;;;1.47;77.59;97974.91;5107930;28;20097;-72
2020/12/10 07:45:55;;;;;;;16.13;10.27;;;;;;;1.55;77.48;97977.56;5107986;28;20098;-72
2020/12/10 07:48:22;;;;;;;17.20;11.73;;;;;;;1.61;77.07;97976.94;5109390;28;20378;-72
2020/12/10 07:50:49;;;;;;;18.50;11.70;;;;;;;1.64;76.20;97976.63;5108165;28;20117;-72
2020/12/10 07:53:16;;;;;;;15.45;9.95;;;;;;;1.67;75.83;97978.09;5109381;28;20040;-72
2020/12/10 07:55:52;;;;;;;13.77;8.85;;;;;;;1.67;75.92;97971.09;5109223;28;20039;-72
2020/12/10 07:58:33;;;;;;;13.85;9.32;;;;;;;1.71;75.53;97966.38;5108022;28;20032;-73
2020/12/10 08:01:03;;;;;;;15.40;9.80;;;;;;;1.69;75.32;97960.50;5109259;28;20044;-72
2020/12/10 08:03:47;;;;;;;15.40;9.57;;;;;;;1.77;75.14;97957.13;5108882;28;20067;-72
2020/12/10 08:06:15;;;;;;;13.20;9.15;;;;;;;1.83;75.20;97965.13;5109024;28;20048;-72
2020/12/10 08:08:45;;;;;;;14.70;9.65;;;;;;;1.93;75.25;97967.63;5108981;28;20047;-72
2020/12/10 08:11:15;;;;;;;11.15;7.93;;;;;;;2.01;74.60;97957.22;5109436;28;20044;-72
2020/12/10 08:14:02;;;;;;;10.65;7.55;;;;;;;2.10;74.41;97956.25;5107470;28;20485;-72
2020/12/10 08:16:40;;;;;;;9.20;7.25;;;;;;;2.23;73.60;97959.19;5108915;28;20047;-72
2020/12/10 08:19:18;;;;;;;7.28;6.00;;;;;;;2.24;72.38;97949.59;5108842;28;20047;-72
2020/12/10 08:21:46;;;;;;;7.45;5.90;;;;;;;2.21;71.65;97955.16;5108962;28;20139;-72
2020/12/10 08:24:13;;;;;;;9.27;5.70;;;;;;;2.18;70.83;97953.66;5108383;28;20112;-72
2020/12/10 08:26:41;;;;;;;8.48;6.22;;;;;;;2.17;71.17;97959.03;5108713;28;20051;-72
2020/12/10 08:29:14;;;;;;;7.45;5.85;;;;;;;2.20;70.80;97956.09;5108444;28;20062;-72
2020/12/10 08:31:41;;;;;;;8.52;6.05;;;;;;;2.26;70.64;97947.66;5108586;28;20048;-72
2020/12/10 08:34:17;;;;;;;8.65;6.20;;;;;;;2.22;69.47;97943.72;5108152;28;20039;-72
2020/12/10 08:36:44;;;;;;;12.82;6.10;;;;;;;2.22;69.66;97948.94;5108574;28;20047;-72
2020/12/10 08:39:11;;;;;;;12.63;7.03;;;;;;;2.29;70.20;97946.53;5108464;28;20070;-72
2020/12/10 08:41:38;;;;;;;8.88;5.63;;;;;;;2.32;69.07;97947.00;5099859;28;20101;-73
2020/12/10 08:44:06;;;;;;;10.65;6.30;;;;;;;2.29;68.72;97946.53;5093165;28;20048;-72
2020/12/10 08:46:34;;;;;;;7.70;5.05;;;;;;;2.28;68.90;97940.47;5095018;28;20040;-72
2020/12/10 08:49:19;;;;;;;10.50;7.35;;;;;;;2.42;68.31;97944.25;5097888;28;20070;-72
2020/12/10 08:51:47;;;;;;;11.40;7.57;;;;;;;2.43;68.30;97948.47;5095488;28;20048;-72
2020/12/10 08:54:14;;;;;;;11.00;6.50;;;;;;;2.50;68.33;97956.47;5112063;28;20024;-73
2020/12/10 08:56:40;;;;;;;6.47;4.82;;;;;;;2.44;66.89;97952.72;5110383;28;20462;-73
2020/12/10 08:59:07;;;;;;;6.28;5.05;;;;;;;2.38;66.75;97950.75;5096365;28;20485;-71
2020/12/10 09:01:35;;;;;;;7.78;5.35;;;;;;;2.36;66.67;97952.69;5094771;28;20048;-72
2020/12/10 09:04:02;;;;;;;5.15;3.70;;;;;;;2.33;67.17;97953.03;5094306;28;20054;-71
2020/12/10 09:06:34;;;;;;;7.32;5.00;;;;;;;2.50;67.74;97956.47;5094689;28;20036;-71
2020/12/10 09:09:01;;;;;;;6.30;4.95;;;;;;;2.62;66.74;97966.44;5094729;28;20508;-71
2020/12/10 09:11:28;;;;;;;5.95;4.60;;;;;;;2.58;66.48;97966.94;5093240;28;20122;-71
2020/12/10 09:13:58;;;;;;;9.45;5.68;;;;;;;2.53;66.42;97969.19;5092607;28;20184;-72
2020/12/10 09:16:25;;;;;;;7.75;5.07;;;;;;;2.53;67.10;97967.41;5094320;28;20097;-71
2020/12/10 09:18:52;;;;;;;7.60;5.75;;;;;;;2.57;66.19;97970.50;5092824;28;20052;-72
2020/12/10 09:21:19;;;;;;;7.57;5.13;;;;;;;2.47;65.24;97968.03;5094102;28;20036;-71
2020/12/10 09:23:46;;;;;;;6.70;5.15;;;;;;;2.32;65.54;97978.28;5093736;28;20048;-70
2020/12/10 09:26:14;;;;;;;5.60;4.70;;;;;;;2.26;65.66;97984.16;5094333;28;20040;-69
2020/12/10 09:28:41;;;;;;;7.93;4.70;;;;;;;2.22;65.98;97977.63;5092733;28;20070;-71
2020/12/10 09:31:08;;;;;;;8.27;4.95;;;;;;;2.17;65.60;97987.72;5092668;28;20048;-70
2020/12/10 09:33:35;;;;;;;7.38;4.75;;;;;;;2.18;66.01;97981.53;5093663;28;20055;-71
2020/12/10 09:36:02;;;;;;;5.68;4.47;;;;;;;2.17;66.92;97975.50;5093795;28;20101;-71
2020/12/10 09:38:29;;;;;;;7.15;5.25;;;;;;;2.31;67.09;97979.28;5093750;28;20381;-71
2020/12/10 09:40:57;;;;;;;7.60;5.50;;;;;;;2.41;67.09;97977.34;5093827;28;20051;-71
2020/12/10 09:43:24;;;;;;;5.72;4.80;;;;;;;2.51;66.64;97984.19;5093703;28;20094;-71
2020/12/10 09:45:55;;;;;;;7.55;5.57;;;;;;;2.45;65.86;97977.84;5092474;28;20455;-71
2020/12/10 09:48:22;;;;;;;9.55;6.20;;;;;;;2.40;66.03;97969.66;5093721;28;20438;-71
2020/12/10 09:50:49;;;;;;;7.05;5.47;;;;;;;2.38;65.99;97974.25;5093427;28;20040;-71
2020/12/10 09:53:21;;;;;;;7.53;5.65;;;;;;;2.41;66.15;97981.75;5092460;28;20558;-71
2020/12/10 09:58:37;;;;;;;8.43;5.78;;;;;;;2.25;65.90;97982.53;5093540;28;20052;-71
2020/12/10 10:01:03;;;;;;;7.65;5.65;;;;;;;2.21;66.14;97978.59;5093386;28;20455;-71
2020/12/10 10:03:30;;;;;;;9.52;5.47;;;;;;;2.24;65.85;97975.66;5093080;28;20044;-71
2020/12/10 10:05:57;;;;;;;8.80;6.10;;;;;;;2.23;65.99;97974.03;5091969;28;20055;-71
2020/12/10 10:08:26;;;;;;;7.57;5.05;;;;;;;2.22;65.92;97969.81;5093215;28;20498;-71
2020/12/10 10:10:54;;;;;;;6.47;5.00;;;;;;;2.17;65.74;97978.09;5093047;28;20044;-71
2020/12/10 10:13:21;;;;;;;7.97;5.57;;;;;;;2.18;66.51;97984.13;5092984;28;20151;-71
2020/12/10 10:15:48;;;;;;;7.32;5.07;;;;;;;2.30;66.11;97980.25;5093014;28;20156;-71
2020/12/10 10:18:16;;;;;;;6.72;5.00;;;;;;;2.32;66.21;97983.50;5092944;28;20078;-71
2020/12/10 10:20:43;;;;;;;6.80;4.88;;;;;;;2.28;65.41;97976.97;5092944;28;20489;-71
2020/12/10 10:23:10;;;;;;;7.68;5.32;;;;;;;2.21;65.93;97976.81;5092851;28;20044;-71
2020/12/10 10:25:36;;;;;;;5.85;4.45;;;;;;;2.17;65.88;97980.72;5091219;28;20089;-71
2020/12/10 10:28:03;;;;;;;7.78;5.47;;;;;;;2.20;65.95;97974.34;5092810;28;20044;-71
2020/12/10 10:30:30;;;;;;;9.07;5.68;;;;;;;2.18;65.42;97966.69;5092584;28;20051;-71
2020/12/10 10:32:58;;;;;;;6.38;4.35;;;;;;;2.11;65.52;97959.66;5091470;28;20048;-71
2020/12/10 10:35:25;;;;;;;7.32;5.03;;;;;;;2.11;66.20;97964.88;5091228;28;20079;-71
2020/12/10 10:37:53;;;;;;;8.40;5.80;;;;;;;2.24;66.31;97957.41;5092756;28;20044;-71
2020/12/10 10:40:20;;;;;;;8.15;6.07;;;;;;;2.35;66.15;97957.09;5092731;28;20409;-71
2020/12/10 10:42:47;;;;;;;8.00;6.15;;;;;;;2.43;66.19;97951.91;5092580;28;20051;-71
2020/12/10 10:45:13;;;;;;;7.78;6.15;;;;;;;2.54;66.20;97948.16;5090879;28;20044;-71
2020/12/10 10:47:40;;;;;;;9.45;7.03;;;;;;;2.55;65.26;97946.38;5092457;28;20048;-71
2020/12/10 10:50:09;;;;;;;8.77;6.68;;;;;;;2.60;65.75;97950.13;5092630;28;20101;-71
2020/12/10 10:52:36;;;;;;;7.95;6.10;;;;;;;2.65;65.19;97953.06;5092575;28;20036;-71
2020/12/10 10:55:02;;;;;;;10.77;7.70;;;;;;;2.60;64.98;97949.31;5092141;28;20062;-71
2020/12/10 10:57:29;;;;;;;6.72;5.82;;;;;;;2.64;65.31;97951.41;5091426;28;20048;-70
2020/12/10 10:59:56;;;;;;;7.90;6.28;;;;;;;2.71;65.34;97948.97;5092725;28;20521;-71
2020/12/10 11:02:28;;;;;;;9.35;5.90;;;;;;;2.73;64.66;97952.22;5092533;28;20123;-70
2020/12/10 11:04:55;;;;;;;7.53;6.22;;;;;;;2.75;65.37;97952.09;5091983;28;20046;-70
2020/12/10 11:07:22;;;;;;;8.85;7.85;;;;;;;2.84;64.87;97953.69;5091116;28;20059;-71
2020/12/10 11:09:49;;;;;;;8.15;6.13;;;;;;;2.84;64.75;97949.28;5092429;28;20036;-70
2020/12/10 11:12:16;;;;;;;9.07;5.88;;;;;;;2.83;65.09;97950.28;5092258;28;20040;-69
2020/12/10 11:14:43;;;;;;;7.97;6.57;;;;;;;2.97;64.51;97951.41;5092083;28;20048;-70
2020/12/10 11:17:09;;;;;;;8.13;6.38;;;;;;;2.92;64.13;97946.69;5092079;28;20050;-70
2020/12/10 11:19:36;;;;;;;9.23;7.10;;;;;;;2.92;63.77;97943.25;5092352;28;20126;-71
2020/12/10 11:22:03;;;;;;;9.93;6.53;;;;;;;2.90;63.92;97942.63;5090829;28;20052;-71
2020/12/10 11:24:30;;;;;;;8.10;6.28;;;;;;;2.91;63.95;97937.22;5090436;28;20055;-71
2020/12/10 11:26:57;;;;;;;9.18;6.40;;;;;;;2.94;64.30;97936.91;5092224;28;20048;-71
2020/12/10 11:29:24;;;;;;;8.55;6.88;;;;;;;3.07;64.48;97925.13;5092212;28;20055;-71
2020/12/10 11:31:53;;;;;;;9.05;7.07;;;;;;;3.20;64.04;97926.22;5090996;28;20044;-71
2020/12/10 11:34:20;;;;;;;11.98;7.93;;;;;;;3.30;63.41;97931.25;5094380;28;20116;-71
2020/12/10 11:36:47;;;;;;;10.93;7.40;;;;;;;3.30;63.26;97925.22;5104533;28;20047;-71
2020/12/10 11:39:14;;;;;;;11.73;8.07;;;;;;;3.30;62.83;97925.22;5091346;28;20076;-70
2020/12/10 11:41:41;;;;;;;10.73;7.65;;;;;;;3.25;62.90;97924.91;5092222;28;20044;-70
2020/12/10 11:44:09;;;;;;;11.25;7.28;;;;;;;3.28;63.18;97916.75;5092193;28;20047;-71
2020/12/10 11:46:35;;;;;;;12.43;9.02;;;;;;;3.33;62.88;97917.88;5092019;28;20046;-71
2020/12/10 11:49:03;;;;;;;8.85;6.65;;;;;;;3.33;62.84;97910.03;5090893;28;20048;-71
2020/12/10 11:51:32;;;;;;;10.35;7.28;;;;;;;3.46;63.04;97917.34;5091775;28;20073;-71
2020/12/10 11:54:02;;;;;;;9.43;6.45;;;;;;;3.58;63.12;97915.16;5091614;28;20039;-71
2020/12/10 11:56:28;;;;;;;9.95;7.40;;;;;;;3.64;62.83;97922.34;5091860;28;20044;-71
2020/12/10 11:58:57;;;;;;;9.93;7.72;;;;;;;3.59;62.00;97919.41;5090472;28;20056;-71
2020/12/10 12:01:23;;;;;;;10.55;7.75;;;;;;;3.51;62.22;97911.59;5091807;28;20051;-70
2020/12/10 12:03:51;;;;;;;10.40;8.35;;;;;;;3.50;62.32;97909.97;5090149;28;20109;-70
2020/12/10 12:06:18;;;;;;;10.30;8.20;;;;;;;3.49;62.29;97909.16;5091694;28;20043;-70
2020/12/10 12:08:44;;;;;;;10.65;8.73;;;;;;;3.55;62.51;97911.13;5091709;28;20054;-70
2020/12/10 12:11:11;;;;;;;14.13;8.73;;;;;;;3.59;62.09;97903.72;5091481;28;20518;-70
2020/12/10 12:13:38;;;;;;;10.73;8.68;;;;;;;3.40;61.84;97904.97;5091749;28;20528;-71
2020/12/10 12:16:07;;;;;;;11.00;7.97;;;;;;;3.34;61.86;97909.03;5093091;28;20046;-70
2020/12/10 12:18:34;;;;;;;11.98;8.52;;;;;;;3.26;62.46;97909.06;5096730;28;20039;-70
2020/12/10 12:21:01;;;;;;;14.00;9.82;;;;;;;3.28;62.62;97914.13;5096180;28;20058;-70
2020/12/10 12:23:27;;;;;;;10.88;8.65;;;;;;;3.19;62.02;97908.94;5094009;28;20044;-71
2020/12/10 12:25:54;;;;;;;9.93;7.60;;;;;;;3.14;62.26;97911.25;5095032;28;20052;-71
2020/12/10 12:28:21;;;;;;;10.88;7.68;;;;;;;3.06;62.49;97908.66;5095588;28;20063;-70
2020/12/10 12:30:48;;;;;;;11.82;7.28;;;;;;;3.04;62.81;97902.78;5095312;28;20037;-70
2020/12/10 12:33:15;;;;;;;11.45;8.18;;;;;;;3.01;63.10;97904.91;5095387;28;20044;-70
2020/12/10 12:35:42;;;;;;;12.00;8.38;;;;;;;3.12;63.38;97897.53;5094823;28;20048;-70
2020/12/10 12:38:09;;;;;;;12.23;8.20;;;;;;;3.23;63.02;97899.78;5096006;28;20052;-70
2020/12/10 12:40:36;;;;;;;11.50;8.45;;;;;;;3.23;62.89;97899.78;5096925;28;20472;-70
2020/12/10 12:43:04;;;;;;;10.95;8.18;;;;;;;3.19;62.24;97901.09;5096667;28;20044;-71
2020/12/10 12:45:30;;;;;;;11.07;8.18;;;;;;;3.11;62.50;97895.09;5096528;28;20043;-70
2020/12/10 12:47:57;;;;;;;11.32;8.00;;;;;;;3.06;62.41;97889.53;5096563;28;20051;-70
2020/12/10 12:50:25;;;;;;;11.35;8.55;;;;;;;3.05;62.85;97885.31;5096167;28;20472;-70
2020/12/10 12:52:53;;;;;;;10.27;8.13;;;;;;;3.14;62.92;97886.91;5096218;28;20043;-71
2020/12/10 12:55:19;;;;;;;11.05;8.20;;;;;;;3.10;62.06;97876.00;5095474;28;20051;-69
2020/12/10 12:57:46;;;;;;;13.27;8.82;;;;;;;2.92;62.44;97881.41;5096588;28;20039;-70
2020/12/10 13:00:13;;;;;;;12.43;8.80;;;;;;;2.81;62.71;97883.56;5096138;28;20044;-70
2020/12/10 13:02:41;;;;;;;11.38;8.70;;;;;;;2.70;63.07;97885.53;5095755;28;20059;-70
2020/12/10 13:05:08;;;;;;;14.05;8.38;;;;;;;2.71;63.11;97875.91;5095510;28;20040;-70
2020/12/10 13:07:35;;;;;;;11.23;7.47;;;;;;;2.64;63.06;97880.97;5094553;28;20052;-70
2020/12/10 13:10:03;;;;;;;11.80;7.93;;;;;;;2.57;63.28;97879.16;5095611;28;20044;-70
2020/12/10 13:12:37;;;;;;;14.25;9.65;;;;;;;2.52;63.90;97871.84;5102591;28;20044;-70
2020/12/10 13:15:04;;;;;;;13.30;9.75;;;;;;;2.52;63.89;97876.25;5110392;28;20055;-70
2020/12/10 13:17:30;;;;;;;11.75;8.27;;;;;;;2.54;63.93;97874.31;5108683;28;20048;-70
2020/12/10 13:19:59;;;;;;;10.95;7.97;;;;;;;2.51;64.23;97870.22;5097204;28;20554;-70
2020/12/10 13:22:27;;;;;;;13.65;9.02;;;;;;;2.57;64.47;97873.94;5093381;28;20151;-70
2020/12/10 13:24:54;;;;;;;10.80;8.27;;;;;;;2.62;64.29;97882.94;5095592;28;20080;-71
2020/12/10 13:27:21;;;;;;;12.00;8.35;;;;;;;2.69;64.36;97877.84;5095816;28;20515;-70
2020/12/10 13:29:49;;;;;;;14.45;9.75;;;;;;;2.69;64.35;97888.28;5096524;28;20044;-70
2020/12/10 13:32:15;;;;;;;11.07;9.20;;;;;;;2.72;64.49;97887.97;5093436;28;20047;-70
2020/12/10 13:34:42;;;;;;;11.50;9.45;;;;;;;2.76;64.70;97884.06;5092486;28;20408;-70
2020/12/10 13:37:09;;;;;;;12.70;10.02;;;;;;;2.90;64.80;97880.78;5094134;28;20051;-70
2020/12/10 13:39:36;;;;;;;14.68;11.07;;;;;;;3.01;64.38;97889.22;5094129;28;20036;-70
2020/12/10 13:42:04;;;;;;;13.27;10.90;;;;;;;3.02;64.10;97885.63;5094282;28;20051;-70
2020/12/10 13:44:30;;;;;;;12.68;9.05;;;;;;;3.05;64.25;97893.94;5094667;28;20502;-70
2020/12/10 13:46:57;;;;;;;12.60;8.85;;;;;;;3.01;63.59;97895.25;5096068;28;20040;-70
2020/12/10 13:49:24;;;;;;;14.10;9.48;;;;;;;2.87;63.55;97890.72;5094700;28;20116;-71
2020/12/10 13:51:52;;;;;;;14.15;9.70;;;;;;;2.79;63.74;97888.13;5095784;28;20119;-71
2020/12/10 13:54:19;;;;;;;11.75;9.50;;;;;;;2.69;63.83;97890.91;5095446;28;20069;-71
2020/12/10 13:56:49;;;;;;;13.45;10.82;;;;;;;2.65;64.16;97884.38;5092863;28;20405;-71
2020/12/10 13:59:18;;;;;;;13.88;10.40;;;;;;;2.64;64.27;97883.56;5093919;28;20047;-71
2020/12/10 14:01:45;;;;;;;13.00;9.48;;;;;;;2.56;63.96;97883.56;5096148;28;20044;-71
2020/12/10 14:04:13;;;;;;;13.50;9.40;;;;;;;2.52;64.29;97891.91;5094311;28;20052;-70
2020/12/10 14:06:40;;;;;;;13.15;10.00;;;;;;;2.50;64.58;97886.84;5092610;28;20491;-70
2020/12/10 14:09:07;;;;;;;12.63;10.40;;;;;;;2.49;64.71;97887.84;5093760;28;20046;-70
2020/12/10 14:11:33;;;;;;;12.63;10.00;;;;;;;2.49;64.58;97885.22;5092647;28;20074;-70
2020/12/10 14:14:02;;;;;;;15.73;11.77;;;;;;;2.42;64.51;97886.84;5092139;28;20044;-71
2020/12/10 14:16:30;;;;;;;18.60;12.60;;;;;;;2.35;65.00;97886.69;5092745;28;20071;-71
2020/12/10 14:18:57;;;;;;;14.70;10.50;;;;;;;2.29;65.16;97882.13;5092711;28;20117;-71
2020/12/10 14:21:24;;;;;;;13.90;10.35;;;;;;;2.28;65.40;97883.09;5093935;28;20047;-70
2020/12/10 14:23:51;;;;;;;12.75;9.30;;;;;;;2.29;65.66;97887.34;5093663;28;20058;-71
2020/12/10 14:26:18;;;;;;;13.65;10.15;;;;;;;2.38;65.48;97890.78;5096329;28;20036;-71
2020/12/10 14:28:45;;;;;;;13.70;10.50;;;;;;;2.46;65.80;97890.78;5094047;28;20040;-71
2020/12/10 14:31:12;;;;;;;14.02;10.55;;;;;;;2.57;66.06;97890.44;5093723;28;20048;-71
2020/12/10 14:33:40;;;;;;;16.90;11.52;;;;;;;2.62;65.50;97890.75;5091864;28;20479;-70
2020/12/10 14:36:07;;;;;;;13.82;10.48;;;;;;;2.64;65.41;97888.78;5094979;28;20411;-71
2020/12/10 14:38:36;;;;;;;14.75;10.60;;;;;;;2.70;65.46;97887.34;5094495;28;20052;-71
2020/12/10 14:41:03;;;;;;;12.50;9.65;;;;;;;2.71;65.41;97888.97;5096179;28;20130;-71
2020/12/10 14:43:30;;;;;;;14.23;10.10;;;;;;;2.75;65.47;97886.84;5097706;28;20058;-71
2020/12/10 14:45:57;;;;;;;14.10;10.10;;;;;;;2.82;65.84;97891.22;5092920;28;20099;-71
2020/12/10 14:48:28;;;;;;;15.02;10.30;;;;;;;2.89;65.35;97894.78;5094575;28;20044;-71
2020/12/10 14:50:56;;;;;;;11.68;9.18;;;;;;;2.97;65.34;97893.97;5094008;28;20131;-71
2020/12/10 14:53:23;;;;;;;14.00;10.30;;;;;;;3.00;64.84;97887.59;5093731;28;20102;-71
2020/12/10 14:55:49;;;;;;;14.88;10.70;;;;;;;2.96;64.90;97885.31;5093896;28;20040;-71
2020/12/10 14:58:16;;;;;;;13.07;9.85;;;;;;;2.96;65.25;97887.13;5091971;28;20046;-70
2020/12/10 15:00:43;;;;;;;15.05;10.82;;;;;;;2.99;64.66;97892.00;5091366;28;20040;-70
2020/12/10 15:03:11;;;;;;;13.15;10.13;;;;;;;2.88;64.57;97889.75;5092437;28;20401;-70
2020/12/10 15:05:38;;;;;;;13.82;10.23;;;;;;;2.81;65.20;97888.78;5092180;28;20552;-71
2020/12/10 15:08:07;;;;;;;14.48;10.05;;;;;;;2.89;65.40;97888.75;5091500;28;20044;-71
2020/12/10 15:10:33;;;;;;;15.48;11.90;;;;;;;2.93;65.38;97893.47;5092330;28;20040;-70
2020/12/10 15:13:00;;;;;;;13.60;10.13;;;;;;;2.94;65.14;97896.94;5092361;28;20044;-71
2020/12/10 15:15:27;;;;;;;16.98;12.10;;;;;;;2.93;64.76;97898.69;5092081;28;20508;-70
2020/12/10 15:17:53;;;;;;;14.57;11.20;;;;;;;2.83;64.76;97903.28;5092796;28;20051;-70
2020/12/10 15:20:20;;;;;;;15.77;10.90;;;;;;;2.76;65.19;97891.88;5091047;28;20044;-70
2020/12/10 15:22:47;;;;;;;20.25;12.68;;;;;;;2.79;65.31;97891.56;5091268;28;20048;-70
2020/12/10 15:25:15;;;;;;;152.30;36.92;;;;;;;2.84;65.78;97891.88;5092225;28;20054;-70
2020/12/10 15:27:41;;;;;;;18.02;12.77;;;;;;;2.91;65.73;97903.28;5092277;28;20055;-69
2020/12/10 15:30:08;;;;;;;13.98;10.90;;;;;;;2.97;65.43;97889.56;5092058;28;20048;-70
2020/12/10 15:32:35;;;;;;;12.23;9.02;;;;;;;3.01;65.30;97889.22;5090704;28;20417;-70
2020/12/10 15:35:02;;;;;;;15.00;11.05;;;;;;;3.01;65.06;97897.88;5090467;28;20051;-70
2020/12/10 15:37:29;;;;;;;13.57;10.30;;;;;;;2.87;64.31;97896.75;5092147;28;20048;-72
2020/12/10 15:39:56;;;;;;;13.13;9.20;;;;;;;2.65;65.01;97894.81;5091963;28;20044;-72
2020/12/10 15:42:23;;;;;;;14.63;10.38;;;;;;;2.57;65.23;97895.66;5092033;28;20040;-73
2020/12/10 15:44:50;;;;;;;13.73;10.10;;;;;;;2.59;65.59;97896.31;5091491;28;20055;-71
2020/12/10 15:47:19;;;;;;;15.77;10.85;;;;;;;2.61;65.73;97889.13;5090486;28;20048;-71
2020/12/10 15:49:47;;;;;;;15.77;11.23;;;;;;;2.56;65.46;97894.00;5091920;28;20493;-72
2020/12/10 15:52:14;;;;;;;14.68;11.00;;;;;;;2.54;65.83;97897.78;5094654;28;20539;-72
2020/12/10 15:54:41;;;;;;;12.43;9.98;;;;;;;2.59;65.82;97905.94;5094261;28;20048;-72
2020/12/10 15:57:07;;;;;;;15.50;11.30;;;;;;;2.61;65.71;97898.75;5095928;28;20044;-72
2020/12/10 15:59:35;;;;;;;15.30;10.50;;;;;;;2.60;65.83;97897.13;5095878;28;20439;-72
2020/12/10 16:02:01;;;;;;;12.13;8.98;;;;;;;2.62;65.82;97900.38;5095813;28;20481;-72
2020/12/10 16:04:30;;;;;;;28.60;18.52;;;;;;;2.61;65.87;97896.97;5094125;28;20043;-73
2020/12/10 16:06:57;;;;;;;13.73;10.20;;;;;;;2.65;65.89;97900.88;5094473;28;20300;-72
2020/12/10 16:09:24;;;;;;;11.57;9.25;;;;;;;2.66;65.80;97909.53;5094655;28;20055;-73
2020/12/10 16:11:51;;;;;;;16.45;12.68;;;;;;;2.77;65.80;97914.38;5095545;28;20044;-72
2020/12/10 16:14:17;;;;;;;11.55;9.30;;;;;;;2.76;65.07;97906.72;5095058;28;20071;-72
2020/12/10 16:16:45;;;;;;;14.77;10.93;;;;;;;2.72;65.51;97912.28;5095485;28;20051;-72
2020/12/10 16:19:12;;;;;;;13.23;9.88;;;;;;;2.65;65.22;97923.53;5095916;28;20573;-73
2020/12/10 16:21:39;;;;;;;12.68;9.52;;;;;;;2.57;65.43;97913.09;5094300;28;20040;-72
2020/12/10 16:24:06;;;;;;;12.48;9.48;;;;;;;2.45;65.02;97916.03;5094286;28;20048;-72
2020/12/10 16:26:32;;;;;;;12.93;9.13;;;;;;;2.37;65.62;97918.66;5094805;28;20412;-72
2020/12/10 16:28:59;;;;;;;12.63;10.10;;;;;;;2.38;65.85;97914.25;5095413;28;20048;-72
2020/12/10 16:31:27;;;;;;;11.65;9.35;;;;;;;2.32;65.53;97918.28;5094481;28;20036;-72
2020/12/10 16:33:55;;;;;;;11.48;8.98;;;;;;;2.31;66.15;97915.88;5095245;28;20516;-72
2020/12/10 16:36:22;;;;;;;12.18;9.07;;;;;;;2.38;66.06;97916.84;5096207;28;20054;-72
2020/12/10 16:38:49;;;;;;;14.98;10.57;;;;;;;2.52;65.93;97920.59;5093996;28;20447;-72
2020/12/10 16:41:21;;;;;;;12.40;9.68;;;;;;;2.44;65.81;97916.19;5095334;28;20490;-73
2020/12/10 16:43:48;;;;;;;12.27;8.95;;;;;;;2.38;65.77;97909.03;5095018;28;20063;-72
2020/12/10 16:46:15;;;;;;;12.57;9.43;;;;;;;2.43;66.51;97917.16;5095413;28;20404;-72
2020/12/10 16:48:42;;;;;;;12.13;9.27;;;;;;;2.58;66.42;97918.16;5095375;28;20474;-72
2020/12/10 16:51:10;;;;;;;17.33;10.63;;;;;;;2.62;66.28;97932.50;5095303;28;20051;-72
2020/12/10 16:53:37;;;;;;;15.68;9.88;;;;;;;2.73;65.98;97933.97;5093403;28;20048;-72
2020/12/10 16:56:04;;;;;;;15.15;11.68;;;;;;;2.76;65.68;97933.63;5095036;28;20039;-72
2020/12/10 16:58:31;;;;;;;12.18;8.55;;;;;;;2.83;65.55;97937.22;5094955;28;20503;-72
2020/12/10 17:00:58;;;;;;;11.57;9.07;;;;;;;2.83;65.66;97944.25;5095161;28;20032;-72
2020/12/10 17:03:25;;;;;;;13.70;9.93;;;;;;;2.84;65.60;97945.88;5094087;28;20040;-73
2020/12/10 17:05:54;;;;;;;11.88;9.10;;;;;;;2.80;65.31;97942.78;5094831;28;20048;-72
2020/12/10 17:08:22;;;;;;;12.00;9.93;;;;;;;2.90;65.61;97947.84;5094595;28;20389;-72
2020/12/10 17:10:49;;;;;;;11.85;8.95;;;;;;;2.95;65.34;97945.53;5094610;28;20132;-72
2020/12/10 17:13:15;;;;;;;11.23;8.80;;;;;;;2.86;64.84;97946.53;5095062;28;20047;-72
2020/12/10 17:15:46;;;;;;;12.48;9.27;;;;;;;2.77;65.25;97948.31;5094719;28;20134;-72
2020/12/10 17:18:13;;;;;;;12.43;9.13;;;;;;;2.74;65.46;97935.63;5095480;28;20048;-72
2020/12/10 17:20:39;;;;;;;12.88;9.50;;;;;;;2.79;65.57;97935.13;5093209;28;20044;-70
2020/12/10 17:23:06;;;;;;;15.07;10.02;;;;;;;2.83;65.67;97936.41;5094543;28;20040;-70
2020/12/10 17:25:34;;;;;;;14.00;8.95;;;;;;;2.86;65.55;97929.06;5094250;28;20044;-69
2020/12/10 17:28:00;;;;;;;14.13;11.15;;;;;;;2.92;65.48;97928.41;5094280;28;20048;-70
2020/12/10 17:30:27;;;;;;;10.52;9.43;;;;;;;2.95;65.07;97935.91;5094433;28;20051;-70
2020/12/10 17:32:54;;;;;;;11.27;8.82;;;;;;;2.78;65.14;97930.88;5108477;28;20114;-70
2020/12/10 17:35:20;;;;;;;12.23;9.85;;;;;;;2.62;65.20;97932.50;5114547;28;20066;-70
2020/12/10 17:37:47;;;;;;;14.63;10.27;;;;;;;2.44;65.48;97929.22;5107326;28;20058;-70
2020/12/10 17:40:14;;;;;;;14.25;10.73;;;;;;;2.41;66.23;97930.38;5094980;28;20123;-70
2020/12/10 17:42:42;;;;;;;17.05;12.30;;;;;;;2.53;65.90;97932.66;5094818;28;20039;-70
2020/12/10 17:45:08;;;;;;;15.38;11.02;;;;;;;2.58;66.21;97935.63;5092669;28;20055;-70
2020/12/10 17:47:35;;;;;;;15.65;10.77;;;;;;;2.72;66.26;97927.13;5094126;28;20040;-70
2020/12/10 17:50:02;;;;;;;14.82;10.45;;;;;;;2.85;66.06;97931.84;5092625;28;20390;-70
2020/12/10 17:52:31;;;;;;;13.60;10.02;;;;;;;2.89;65.42;97922.69;5093871;28;20046;-70
2020/12/10 17:55:00;;;;;;;12.93;10.73;;;;;;;2.86;65.21;97931.69;5093715;28;20058;-70
2020/12/10 17:57:27;;;;;;;16.42;11.23;;;;;;;2.89;65.43;97923.50;5092794;28;20498;-70
2020/12/10 17:59:54;;;;;;;15.30;10.90;;;;;;;2.83;65.30;97920.75;5093754;28;20413;-70
2020/12/10 18:02:21;;;;;;;12.90;10.43;;;;;;;2.78;65.51;97923.88;5093794;28;20075;-70
2020/12/10 18:04:48;;;;;;;13.23;10.57;;;;;;;2.81;65.85;97922.69;5093549;28;20036;-70
2020/12/10 18:07:15;;;;;;;14.70;11.55;;;;;;;2.83;65.74;97918.16;5093772;28;20048;-70
2020/12/10 18:09:42;;;;;;;15.98;12.20;;;;;;;2.80;65.72;97927.09;5093766;28;20048;-70
2020/12/10 18:12:09;;;;;;;14.23;11.10;;;;;;;2.71;65.59;97930.72;5093458;28;20040;-70
2020/12/10 18:14:38;;;;;;;14.68;10.95;;;;;;;2.62;65.78;97926.47;5091362;28;20064;-70
2020/12/10 18:17:05;;;;;;;14.80;10.43;;;;;;;2.51;65.42;97927.59;5093413;28;20040;-70
2020/12/10 18:19:32;;;;;;;15.50;10.90;;;;;;;2.51;66.15;97924.19;5093323;28;20082;-69
2020/12/10 18:21:59;;;;;;;13.00;9.88;;;;;;;2.65;66.32;97920.91;5093271;28;20047;-70
2020/12/10 18:24:25;;;;;;;13.05;10.45;;;;;;;2.62;65.68;97918.66;5093081;28;20503;-70
2020/12/10 18:26:53;;;;;;;15.93;11.23;;;;;;;2.52;65.68;97910.97;5093380;28;20058;-70
2020/12/10 18:29:19;;;;;;;13.38;10.63;;;;;;;2.50;66.15;97918.16;5092370;28;20409;-70
2020/12/10 18:31:46;;;;;;;18.38;12.63;;;;;;;2.63;66.34;97918.47;5093405;28;20047;-70
2020/12/10 18:34:14;;;;;;;15.75;12.30;;;;;;;2.71;66.24;97915.88;5093321;28;20044;-70
2020/12/10 18:36:41;;;;;;;13.73;9.57;;;;;;;2.72;65.78;97914.88;5093141;28;20047;-70
2020/12/10 18:39:12;;;;;;;13.38;11.02;;;;;;;2.72;65.66;97914.88;5091763;28;20048;-70
2020/12/10 18:41:38;;;;;;;13.57;10.75;;;;;;;2.76;65.81;97904.13;5092972;28;20421;-70
2020/12/10 18:44:05;;;;;;;15.85;11.45;;;;;;;2.86;65.50;97908.19;5092773;28;20051;-70
2020/12/10 18:46:32;;;;;;;16.00;12.38;;;;;;;2.82;65.43;97906.09;5092967;28;20052;-70
2020/12/10 18:48:58;;;;;;;14.70;11.57;;;;;;;2.81;65.29;97905.25;5092938;28;20067;-70
2020/12/10 18:51:26;;;;;;;13.40;11.32;;;;;;;2.76;65.72;97906.72;5092807;28;20040;-70
2020/12/10 18:53:53;;;;;;;15.52;10.98;;;;;;;2.73;65.78;97906.09;5092668;28;20054;-70
2020/12/10 18:56:20;;;;;;;14.55;10.80;;;;;;;2.73;65.62;97902.63;5092794;28;20047;-70
2020/12/10 18:58:47;;;;;;;15.57;10.63;;;;;;;2.66;65.55;97907.72;5092785;28;20115;-70
2020/12/10 19:01:15;;;;;;;11.50;10.23;;;;;;;2.58;65.57;97902.50;5091356;28;20043;-69
2020/12/10 19:03:42;;;;;;;15.10;11.10;;;;;;;2.65;66.12;97910.47;5092339;28;20127;-70